Time;durP1;ratioP1;P1;durP2;ratioP2;P2;SDS_P1;SDS_P2;PMS_P1;PMS_P2;Temp;Humidity;BMP_temperature;BMP_pressure;BME280_temperature;BME280_humidity;BME280_pressure;Samples;Min_cycle;Max_cycle;Signal;HPM_P1;HPM_P2
2022/01/06 00:00:23;;;;;;;17.40;3.35;;;;;;;;;;5097373;28;20048;-91
2022/01/06 00:02:49;;;;;;;11.73;2.92;;;;;;;;;;5078477;28;20124;-90
2022/01/06 00:05:15;;;;;;;16.33;3.53;;;;;;;;;;5060241;28;20131;-90
2022/01/06 00:07:41;;;;;;;14.27;2.63;;;;;;;;;;5076365;28;20043;-90
2022/01/06 00:10:11;;;;;;;16.52;2.92;;;;;;;;;;5076591;28;20036;-90
2022/01/06 00:12:46;;;;;;;17.50;3.20;;;;;;;;;;5060454;28;20476;-89
2022/01/06 00:25:48;;;;;;;12.68;2.53;;;;;;;;;;5096908;28;20096;-90
2022/01/06 00:28:15;;;;;;;16.05;3.03;;;;;;;;;;5096635;28;20035;-87
2022/01/06 00:30:41;;;;;;;15.23;3.10;;;;;;;;;;5096553;28;20044;-90
2022/01/06 00:33:07;;;;;;;14.38;3.05;;;;;;;;;;5097107;28;20066;-89
2022/01/06 00:35:34;;;;;;;15.95;2.75;;;;;;;;;;5096588;28;20086;-90
2022/01/06 00:38:00;;;;;;;11.80;2.55;;;;;;;;;;5079509;28;20042;-89
2022/01/06 00:40:26;;;;;;;14.15;3.42;;;;;;;;;;5077709;28;20035;-89
2022/01/06 00:42:52;;;;;;;10.80;2.78;;;;;;;;;;5059427;28;20546;-90
2022/01/06 00:45:18;;;;;;;13.82;2.33;;;;;;;;;;5076066;28;20154;-89
2022/01/06 00:47:44;;;;;;;11.00;2.10;;;;;;;;;;5075659;28;20040;-88
2022/01/06 00:50:11;;;;;;;9.95;2.20;;;;;;;;;;5075524;28;20050;-88
2022/01/06 00:52:37;;;;;;;12.30;1.77;;;;;;;;;;5078943;28;20032;-89
2022/01/06 00:55:04;;;;;;;9.48;2.13;;;;;;;;;;5095558;28;20051;-90
2022/01/06 00:57:30;;;;;;;11.10;2.30;;;;;;;;;;5079114;28;20122;-90
2022/01/06 00:59:56;;;;;;;11.40;1.90;;;;;;;;;;5096189;28;20050;-90
2022/01/06 01:02:23;;;;;;;9.80;2.13;;;;;;;;;;5079322;28;20039;-89
2022/01/06 01:04:49;;;;;;;13.18;1.80;;;;;;;;;;5079085;28;20039;-89
2022/01/06 01:07:15;;;;;;;11.43;2.20;;;;;;;;;;5078675;28;20079;-89
2022/01/06 01:09:42;;;;;;;11.93;2.25;;;;;;;;;;5078645;28;20043;-90
2022/01/06 01:12:08;;;;;;;11.25;1.95;;;;;;;;;;5075059;28;20078;-90
2022/01/06 01:14:45;;;;;;;9.25;2.15;;;;;;;;;;5075017;28;20043;-88
2022/01/06 01:17:17;;;;;;;10.63;1.80;;;;;;;;;;5075394;28;20036;-88
2022/01/06 01:19:43;;;;;;;13.75;2.20;;;;;;;;;;5058260;28;20043;-89
2022/01/06 01:22:09;;;;;;;10.57;2.03;;;;;;;;;;5074613;28;20047;-89
2022/01/06 01:24:36;;;;;;;12.73;2.13;;;;;;;;;;5074725;28;20376;-89
2022/01/06 01:27:04;;;;;;;9.25;2.35;;;;;;;;;;5074738;28;20036;-89
2022/01/06 01:29:34;;;;;;;12.68;2.22;;;;;;;;;;5074681;28;20721;-90
2022/01/06 01:32:00;;;;;;;10.90;2.00;;;;;;;;;;5074520;28;20399;-89
2022/01/06 01:34:28;;;;;;;8.85;1.90;;;;;;;;;;5057764;28;20032;-89
2022/01/06 01:37:06;;;;;;;8.60;1.45;;;;;;;;;;5074570;28;20043;-89
2022/01/06 01:39:32;;;;;;;10.75;2.13;;;;;;;;;;5057806;28;20577;-89
2022/01/06 01:41:58;;;;;;;9.00;1.63;;;;;;;;;;5073826;28;20124;-89
2022/01/06 01:44:25;;;;;;;10.95;2.00;;;;;;;;;;5057325;28;20047;-89
2022/01/06 01:47:01;;;;;;;16.92;2.75;;;;;;;;;;5057049;28;20618;-88
2022/01/06 01:49:32;;;;;;;9.15;2.05;;;;;;;;;;5073883;28;20495;-88
2022/01/06 01:51:59;;;;;;;13.30;2.45;;;;;;;;;;5057319;28;20483;-88
2022/01/06 01:54:25;;;;;;;13.63;2.40;;;;;;;;;;5056817;28;20052;-89
2022/01/06 01:56:52;;;;;;;9.75;1.88;;;;;;;;;;5073723;28;20044;-89
2022/01/06 01:59:18;;;;;;;16.33;2.83;;;;;;;;;;5073856;28;20040;-89
2022/01/06 02:01:44;;;;;;;9.90;2.40;;;;;;;;;;5080792;28;20071;-88
2022/01/06 02:04:10;;;;;;;12.18;2.45;;;;;;;;;;5077278;28;20537;-90
2022/01/06 02:06:36;;;;;;;13.27;2.30;;;;;;;;;;5094185;28;20402;-89
2022/01/06 02:09:03;;;;;;;17.75;2.55;;;;;;;;;;5093996;28;20483;-89
2022/01/06 02:11:29;;;;;;;10.65;2.58;;;;;;;;;;5077079;28;20126;-89
2022/01/06 02:13:58;;;;;;;15.07;2.80;;;;;;;;;;5093541;28;20040;-89
2022/01/06 02:16:26;;;;;;;14.27;2.72;;;;;;;;;;5076989;28;20061;-88
2022/01/06 02:18:53;;;;;;;10.98;2.15;;;;;;;;;;5077069;28;20050;-89
2022/01/06 02:21:19;;;;;;;11.27;1.70;;;;;;;;;;5093601;28;20645;-89
2022/01/06 02:23:45;;;;;;;13.73;2.38;;;;;;;;;;5093701;28;20036;-89
2022/01/06 02:26:12;;;;;;;10.82;2.03;;;;;;;;;;5076676;28;20044;-89
2022/01/06 02:28:42;;;;;;;12.85;2.47;;;;;;;;;;5067231;28;20084;-87
2022/01/06 02:31:09;;;;;;;10.20;2.42;;;;;;;;;;5056903;28;20411;-89
2022/01/06 02:33:36;;;;;;;13.55;2.47;;;;;;;;;;5083878;28;20039;-88
2022/01/06 02:36:02;;;;;;;17.00;2.90;;;;;;;;;;5076488;28;20043;-89
2022/01/06 02:38:28;;;;;;;16.90;2.83;;;;;;;;;;5093566;28;20644;-88
2022/01/06 02:40:54;;;;;;;12.05;2.28;;;;;;;;;;5076633;28;20568;-87
2022/01/06 02:43:23;;;;;;;13.05;2.47;;;;;;;;;;5093011;28;20047;-89
2022/01/06 02:45:49;;;;;;;13.52;2.22;;;;;;;;;;5077153;28;20032;-90
2022/01/06 02:48:16;;;;;;;13.98;2.47;;;;;;;;;;5076673;28;20040;-87
2022/01/06 02:50:43;;;;;;;12.80;2.85;;;;;;;;;;5093185;28;20118;-88
2022/01/06 02:53:10;;;;;;;12.15;2.38;;;;;;;;;;5093119;28;20090;-88
2022/01/06 02:55:37;;;;;;;14.93;2.95;;;;;;;;;;5062285;28;20043;-87
2022/01/06 02:58:04;;;;;;;12.45;2.70;;;;;;;;;;5056716;28;20040;-88
2022/01/06 03:00:30;;;;;;;13.32;2.80;;;;;;;;;;5056716;28;20135;-88
2022/01/06 03:02:56;;;;;;;20.30;3.47;;;;;;;;;;5056382;28;20036;-89
2022/01/06 03:05:23;;;;;;;11.25;2.42;;;;;;;;;;5072920;28;20051;-89
2022/01/06 03:07:49;;;;;;;15.02;2.97;;;;;;;;;;5072985;28;20044;-89
2022/01/06 03:10:16;;;;;;;14.32;2.72;;;;;;;;;;5056603;28;20644;-89
2022/01/06 03:12:43;;;;;;;16.67;2.58;;;;;;;;;;5072976;28;20039;-90
2022/01/06 03:15:17;;;;;;;17.33;2.53;;;;;;;;;;5076333;28;20039;-89
2022/01/06 03:17:44;;;;;;;11.00;2.13;;;;;;;;;;5076187;28;20051;-89
2022/01/06 03:20:12;;;;;;;10.88;2.38;;;;;;;;;;5076569;28;20750;-88
2022/01/06 03:22:38;;;;;;;19.92;2.92;;;;;;;;;;5059316;28;20048;-88
2022/01/06 03:25:05;;;;;;;11.50;2.85;;;;;;;;;;5059370;28;20142;-88
2022/01/06 03:27:31;;;;;;;17.42;2.70;;;;;;;;;;5094087;28;20506;-89
2022/01/06 03:29:57;;;;;;;9.68;2.70;;;;;;;;;;5096138;28;20041;-88
2022/01/06 03:32:24;;;;;;;14.20;2.53;;;;;;;;;;5079393;28;20036;-88
2022/01/06 03:34:50;;;;;;;14.52;2.80;;;;;;;;;;5079587;28;20061;-88
2022/01/06 03:37:16;;;;;;;12.80;2.63;;;;;;;;;;5079590;28;20036;-89
2022/01/06 03:40:04;;;;;;;14.07;2.53;;;;;;;;;;5079120;28;20042;-88
2022/01/06 03:42:32;;;;;;;19.35;3.38;;;;;;;;;;5096120;28;20380;-89
2022/01/06 03:44:58;;;;;;;11.90;2.20;;;;;;;;;;5095994;28;20039;-89
2022/01/06 03:47:24;;;;;;;12.98;2.50;;;;;;;;;;5095763;28;20253;-89
2022/01/06 03:49:50;;;;;;;11.95;2.63;;;;;;;;;;5079103;28;20123;-89
2022/01/06 03:52:16;;;;;;;13.25;2.53;;;;;;;;;;5095830;28;20078;-88
2022/01/06 03:54:43;;;;;;;12.07;2.60;;;;;;;;;;5095752;28;20052;-88
2022/01/06 03:57:09;;;;;;;13.40;2.60;;;;;;;;;;5095689;28;20123;-89
2022/01/06 03:59:35;;;;;;;10.15;2.25;;;;;;;;;;5095777;28;20539;-89
2022/01/06 04:02:02;;;;;;;13.93;2.20;;;;;;;;;;5078986;28;20031;-88
2022/01/06 04:04:29;;;;;;;11.30;2.47;;;;;;;;;;5095705;28;20514;-87
2022/01/06 04:06:55;;;;;;;11.55;2.08;;;;;;;;;;5078982;28;20035;-88
2022/01/06 04:09:21;;;;;;;12.40;2.90;;;;;;;;;;5078459;28;20101;-89
2022/01/06 04:11:47;;;;;;;16.33;2.85;;;;;;;;;;5078289;28;20032;-88
2022/01/06 04:14:13;;;;;;;12.57;3.33;;;;;;;;;;5095571;28;20483;-88
2022/01/06 04:16:40;;;;;;;15.98;2.80;;;;;;;;;;5095213;28;20039;-88
2022/01/06 04:19:07;;;;;;;15.60;2.67;;;;;;;;;;5078551;28;20042;-88
2022/01/06 04:21:33;;;;;;;12.70;2.70;;;;;;;;;;5078378;28;20036;-88
2022/01/06 04:24:00;;;;;;;12.15;2.78;;;;;;;;;;5078217;28;20119;-88
2022/01/06 04:26:26;;;;;;;21.27;2.83;;;;;;;;;;5095235;28;20046;-88
2022/01/06 04:28:52;;;;;;;14.48;4.00;;;;;;;;;;5078235;28;20124;-88
2022/01/06 04:31:19;;;;;;;16.27;2.95;;;;;;;;;;5078241;28;20092;-88
2022/01/06 04:33:45;;;;;;;19.05;3.67;;;;;;;;;;5094966;28;20104;-88
2022/01/06 04:36:11;;;;;;;13.95;2.70;;;;;;;;;;5078774;28;20050;-88
2022/01/06 04:38:38;;;;;;;14.30;2.92;;;;;;;;;;5078002;28;20082;-88
2022/01/06 04:41:04;;;;;;;14.15;3.33;;;;;;;;;;5077939;28;20039;-88
2022/01/06 04:43:31;;;;;;;13.65;2.70;;;;;;;;;;5095205;28;20384;-88
2022/01/06 04:45:57;;;;;;;20.52;3.05;;;;;;;;;;5094717;28;20047;-88
2022/01/06 04:48:23;;;;;;;12.07;2.67;;;;;;;;;;5077548;28;20043;-88
2022/01/06 04:50:50;;;;;;;21.63;3.88;;;;;;;;;;5094735;28;20042;-89
2022/01/06 04:53:16;;;;;;;12.60;2.42;;;;;;;;;;5094361;28;20056;-88
2022/01/06 04:55:42;;;;;;;12.32;2.90;;;;;;;;;;5077569;28;20089;-88
2022/01/06 04:58:09;;;;;;;15.52;2.78;;;;;;;;;;5094542;28;20044;-88
2022/01/06 05:00:35;;;;;;;17.88;4.07;;;;;;;;;;5077762;28;20089;-88
2022/01/06 05:03:01;;;;;;;15.05;2.30;;;;;;;;;;5083580;28;20055;-88
2022/01/06 05:05:27;;;;;;;17.55;3.20;;;;;;;;;;5073922;28;20522;-88
2022/01/06 05:07:53;;;;;;;18.75;3.40;;;;;;;;;;5073959;28;20040;-88
2022/01/06 05:10:19;;;;;;;13.50;2.53;;;;;;;;;;5077785;28;20043;-87
2022/01/06 05:12:46;;;;;;;15.88;3.17;;;;;;;;;;5081311;28;20040;-87
2022/01/06 05:15:13;;;;;;;15.98;3.92;;;;;;;;;;5085091;28;20525;-88
2022/01/06 05:17:39;;;;;;;9.98;2.28;;;;;;;;;;5058005;28;20036;-88
2022/01/06 05:20:06;;;;;;;13.80;2.55;;;;;;;;;;5069054;28;20093;-88
2022/01/06 05:22:34;;;;;;;14.85;2.72;;;;;;;;;;5063863;28;20047;-88
2022/01/06 05:25:01;;;;;;;15.93;2.85;;;;;;;;;;5077574;28;20393;-88
2022/01/06 05:27:27;;;;;;;12.68;2.80;;;;;;;;;;5055266;28;20035;-87
2022/01/06 05:29:53;;;;;;;14.75;2.75;;;;;;;;;;5069622;28;20365;-87
2022/01/06 05:32:19;;;;;;;10.52;1.65;;;;;;;;;;5063536;28;20220;-88
2022/01/06 05:34:45;;;;;;;14.27;2.90;;;;;;;;;;5077989;28;20032;-88
2022/01/06 05:37:12;;;;;;;14.82;2.92;;;;;;;;;;5069845;28;20623;-87
2022/01/06 05:39:38;;;;;;;16.80;3.03;;;;;;;;;;5075076;28;20035;-87
2022/01/06 05:42:04;;;;;;;15.35;2.42;;;;;;;;;;5082229;28;20040;-88
2022/01/06 05:44:33;;;;;;;15.00;3.03;;;;;;;;;;5082546;28;20047;-88
2022/01/06 05:47:00;;;;;;;18.17;3.08;;;;;;;;;;5057646;28;20040;-88
2022/01/06 05:49:26;;;;;;;14.18;2.88;;;;;;;;;;5086594;28;20044;-88
2022/01/06 05:51:52;;;;;;;9.00;1.92;;;;;;;;;;5078902;28;20102;-88
2022/01/06 05:54:19;;;;;;;9.85;2.50;;;;;;;;;;5078457;28;20063;-87
2022/01/06 05:56:45;;;;;;;10.07;2.13;;;;;;;;;;5087332;28;20040;-88
2022/01/06 05:59:11;;;;;;;11.25;2.65;;;;;;;;;;5057508;28;20047;-87
2022/01/06 06:01:37;;;;;;;12.63;2.38;;;;;;;;;;5083268;28;20036;-87
2022/01/06 06:04:04;;;;;;;15.07;3.03;;;;;;;;;;5081795;28;20086;-87
2022/01/06 06:06:30;;;;;;;17.88;3.65;;;;;;;;;;5075122;28;20052;-87
2022/01/06 06:08:56;;;;;;;12.98;2.25;;;;;;;;;;5071330;28;20514;-87
2022/01/06 06:11:22;;;;;;;19.85;3.63;;;;;;;;;;5067781;28;20500;-87
2022/01/06 06:13:48;;;;;;;15.82;3.42;;;;;;;;;;5064249;28;20031;-87
2022/01/06 06:16:14;;;;;;;11.77;3.20;;;;;;;;;;5076074;28;20506;-87
2022/01/06 06:18:41;;;;;;;13.25;2.92;;;;;;;;;;5069722;28;20051;-87
2022/01/06 06:21:07;;;;;;;12.48;2.58;;;;;;;;;;5075866;28;20129;-87
2022/01/06 06:23:33;;;;;;;15.30;2.60;;;;;;;;;;5080816;28;20649;-87
2022/01/06 06:25:59;;;;;;;15.20;2.70;;;;;;;;;;5084128;28;20071;-88
2022/01/06 06:28:26;;;;;;;14.90;2.33;;;;;;;;;;5074062;28;20123;-88
2022/01/06 06:30:52;;;;;;;16.65;2.55;;;;;;;;;;5068235;28;20131;-88
2022/01/06 06:33:18;;;;;;;11.48;2.53;;;;;;;;;;5062543;28;20036;-87
2022/01/06 06:35:44;;;;;;;15.73;2.22;;;;;;;;;;5060709;28;20040;-87
2022/01/06 06:38:11;;;;;;;12.93;2.55;;;;;;;;;;5086435;28;20075;-87
2022/01/06 06:40:37;;;;;;;13.93;3.03;;;;;;;;;;5074720;28;20039;-87
2022/01/06 06:43:03;;;;;;;15.48;2.83;;;;;;;;;;5065210;28;20110;-87
2022/01/06 06:45:29;;;;;;;12.35;2.55;;;;;;;;;;5082282;28;20040;-87
2022/01/06 06:47:55;;;;;;;12.68;2.70;;;;;;;;;;5091936;28;20293;-87
2022/01/06 06:50:22;;;;;;;15.02;2.58;;;;;;;;;;5075350;28;20036;-87
2022/01/06 06:52:48;;;;;;;20.80;3.20;;;;;;;;;;5077026;28;20050;-87
2022/01/06 06:55:15;;;;;;;10.00;2.35;;;;;;;;;;5065074;28;20044;-88
2022/01/06 06:57:41;;;;;;;12.43;2.35;;;;;;;;;;5056962;28;20075;-88
2022/01/06 07:00:08;;;;;;;12.05;2.28;;;;;;;;;;5077135;28;20059;-87
2022/01/06 07:02:35;;;;;;;12.55;2.22;;;;;;;;;;5086570;28;20058;-87
2022/01/06 07:05:01;;;;;;;15.65;2.15;;;;;;;;;;5068121;28;20071;-87
2022/01/06 07:07:27;;;;;;;12.07;2.20;;;;;;;;;;5078629;28;20044;-87
2022/01/06 07:09:53;;;;;;;11.88;2.65;;;;;;;;;;5073112;28;20036;-87
2022/01/06 07:12:20;;;;;;;10.73;2.15;;;;;;;;;;5063971;28;20043;-87
2022/01/06 07:14:46;;;;;;;11.73;2.80;;;;;;;;;;5083088;28;20028;-87
2022/01/06 07:17:12;;;;;;;18.58;2.75;;;;;;;;;;5073510;28;20523;-86
2022/01/06 07:19:38;;;;;;;20.25;2.97;;;;;;;;;;5075749;28;20036;-87
2022/01/06 07:22:05;;;;;;;13.80;2.20;;;;;;;;;;5093749;28;20062;-87
2022/01/06 07:24:31;;;;;;;12.40;2.95;;;;;;;;;;5083895;28;20410;-88
2022/01/06 07:26:57;;;;;;;11.40;2.55;;;;;;;;;;5057871;28;20051;-88
2022/01/06 07:29:23;;;;;;;12.45;2.45;;;;;;;;;;5089810;28;20418;-87
2022/01/06 07:31:50;;;;;;;14.38;3.30;;;;;;;;;;5061717;28;20178;-86
2022/01/06 07:34:16;;;;;;;12.00;2.42;;;;;;;;;;5084229;28;20042;-86
2022/01/06 07:36:42;;;;;;;20.67;3.20;;;;;;;;;;5086312;28;20477;-87
2022/01/06 07:39:08;;;;;;;14.07;2.60;;;;;;;;;;5076781;28;20032;-86
2022/01/06 07:41:35;;;;;;;18.90;3.10;;;;;;;;;;5089164;28;20483;-86
2022/01/06 07:44:05;;;;;;;13.35;3.08;;;;;;;;;;5065591;28;20047;-86
2022/01/06 07:46:32;;;;;;;11.60;2.70;;;;;;;;;;5063419;28;20147;-86
2022/01/06 07:48:58;;;;;;;13.73;2.50;;;;;;;;;;5088926;28;20240;-86
2022/01/06 07:51:25;;;;;;;15.52;2.45;;;;;;;;;;5077007;28;20118;-87
2022/01/06 07:53:52;;;;;;;17.40;2.53;;;;;;;;;;5067495;28;20411;-86
2022/01/06 07:56:18;;;;;;;12.77;2.60;;;;;;;;;;5068641;28;20071;-86
2022/01/06 07:58:45;;;;;;;14.52;2.70;;;;;;;;;;5092635;28;20044;-87
2022/01/06 08:01:11;;;;;;;15.85;2.72;;;;;;;;;;5081157;28;20119;-86
2022/01/06 08:03:38;;;;;;;13.60;2.53;;;;;;;;;;5084883;28;20121;-86
2022/01/06 08:06:04;;;;;;;13.77;3.22;;;;;;;;;;5084204;28;20074;-86
2022/01/06 08:08:30;;;;;;;15.63;2.92;;;;;;;;;;5066100;28;20043;-86
2022/01/06 08:10:57;;;;;;;16.15;3.70;;;;;;;;;;5088970;28;20035;-87
2022/01/06 08:13:23;;;;;;;14.27;2.92;;;;;;;;;;5076650;28;20103;-85
2022/01/06 08:15:49;;;;;;;17.92;3.10;;;;;;;;;;5081343;28;20495;-86
2022/01/06 08:18:15;;;;;;;14.85;2.67;;;;;;;;;;5088120;28;20040;-84
2022/01/06 08:20:41;;;;;;;19.00;3.67;;;;;;;;;;5090733;28;20426;-84
2022/01/06 08:23:08;;;;;;;17.90;3.00;;;;;;;;;;5071304;28;20044;-84
2022/01/06 08:25:35;;;;;;;17.65;3.33;;;;;;;;;;5078026;28;20036;-84
2022/01/06 08:28:01;;;;;;;11.15;3.08;;;;;;;;;;5088056;28;20067;-84
2022/01/06 08:30:27;;;;;;;16.63;3.38;;;;;;;;;;5081526;28;20449;-84
2022/01/06 08:32:55;;;;;;;16.08;3.13;;;;;;;;;;5056810;28;20032;-85
2022/01/06 08:35:21;;;;;;;18.15;3.92;;;;;;;;;;5082106;28;20032;-85
2022/01/06 08:37:47;;;;;;;12.25;3.00;;;;;;;;;;5078139;28;20256;-85
2022/01/06 08:40:14;;;;;;;14.43;3.08;;;;;;;;;;5074149;28;20054;-85
2022/01/06 08:42:40;;;;;;;12.23;2.85;;;;;;;;;;5060450;28;20040;-85
2022/01/06 08:45:06;;;;;;;16.52;3.03;;;;;;;;;;5065606;28;20040;-85
2022/01/06 08:47:33;;;;;;;18.85;3.20;;;;;;;;;;5055093;28;20181;-85
2022/01/06 08:49:59;;;;;;;17.23;3.58;;;;;;;;;;5079982;28;20518;-85
2022/01/06 08:52:26;;;;;;;15.45;3.00;;;;;;;;;;5089789;28;20032;-85
2022/01/06 08:54:52;;;;;;;15.23;2.63;;;;;;;;;;5089101;28;20058;-85
2022/01/06 08:57:18;;;;;;;16.70;3.65;;;;;;;;;;5086073;28;20511;-85
2022/01/06 08:59:45;;;;;;;15.65;3.47;;;;;;;;;;5082211;28;20262;-85
2022/01/06 09:02:11;;;;;;;16.15;3.15;;;;;;;;;;5065120;28;20092;-86
2022/01/06 09:04:37;;;;;;;15.13;3.10;;;;;;;;;;5083380;28;20078;-86
2022/01/06 09:07:04;;;;;;;17.48;3.53;;;;;;;;;;5060357;28;20096;-86
2022/01/06 09:09:30;;;;;;;15.07;3.17;;;;;;;;;;5057992;28;20177;-85
2022/01/06 09:11:56;;;;;;;15.93;2.92;;;;;;;;;;5062872;28;20036;-85
2022/01/06 09:14:23;;;;;;;17.08;4.40;;;;;;;;;;5059386;28;20384;-85
2022/01/06 09:16:50;;;;;;;16.20;2.90;;;;;;;;;;5060427;28;20715;-85
2022/01/06 09:19:16;;;;;;;19.27;3.83;;;;;;;;;;5056873;28;20526;-85
2022/01/06 09:21:43;;;;;;;13.00;2.67;;;;;;;;;;5076360;28;20036;-85
2022/01/06 09:24:09;;;;;;;15.77;3.38;;;;;;;;;;5080767;28;20402;-86
2022/01/06 09:26:36;;;;;;;14.15;5.03;;;;;;;;;;5075627;28;20065;-85
2022/01/06 09:29:07;;;;;;;16.58;3.55;;;;;;;;;;5077595;28;20085;-85
2022/01/06 09:31:35;;;;;;;18.23;4.32;;;;;;;;;;5077193;28;20054;-85
2022/01/06 09:34:02;;;;;;;13.80;2.88;;;;;;;;;;5084064;28;20035;-86
2022/01/06 09:36:29;;;;;;;13.63;3.28;;;;;;;;;;5080985;28;20036;-85
2022/01/06 09:38:56;;;;;;;15.80;3.08;;;;;;;;;;5086277;28;20505;-86
2022/01/06 09:41:23;;;;;;;11.38;3.58;;;;;;;;;;5073843;28;20071;-86
2022/01/06 09:43:51;;;;;;;14.68;3.50;;;;;;;;;;5090924;28;20039;-86
2022/01/06 09:46:20;;;;;;;14.20;3.30;;;;;;;;;;5068463;28;20093;-86
2022/01/06 09:48:46;;;;;;;10.88;3.05;;;;;;;;;;5085917;28;20124;-86
2022/01/06 09:51:12;;;;;;;14.27;3.17;;;;;;;;;;5093617;28;20441;-85
2022/01/06 09:53:39;;;;;;;11.32;2.30;;;;;;;;;;5081216;28;20101;-86
2022/01/06 09:56:06;;;;;;;13.38;3.60;;;;;;;;;;5074012;28;20043;-85
2022/01/06 09:58:32;;;;;;;11.52;2.55;;;;;;;;;;5055677;28;20108;-85
2022/01/06 10:00:59;;;;;;;12.43;2.75;;;;;;;;;;5036042;28;20051;-86
2022/01/06 10:03:42;;;;;;;12.02;2.90;;;;;;;;;;5047464;28;20559;-86
2022/01/06 10:06:13;;;;;;;17.25;3.35;;;;;;;;;;5063185;28;20089;-86
2022/01/06 10:08:39;;;;;;;19.05;3.80;;;;;;;;;;5054093;28;20048;-86
2022/01/06 10:11:13;;;;;;;15.45;3.92;;;;;;;;;;5065922;28;20667;-86
2022/01/06 10:13:40;;;;;;;19.17;3.57;;;;;;;;;;5043784;28;20459;-86
2022/01/06 10:16:19;;;;;;;12.57;3.22;;;;;;;;;;5040470;28;20048;-86
2022/01/06 10:18:56;;;;;;;16.40;3.72;;;;;;;;;;5066344;28;20048;-86
2022/01/06 10:21:22;;;;;;;23.27;3.80;;;;;;;;;;5042046;28;20036;-85
2022/01/06 10:23:58;;;;;;;12.38;2.75;;;;;;;;;;5060822;28;20040;-86
2022/01/06 10:26:24;;;;;;;16.23;4.55;;;;;;;;;;5054002;28;20503;-86
2022/01/06 10:28:51;;;;;;;19.73;4.05;;;;;;;;;;5059544;28;20071;-86
2022/01/06 10:31:22;;;;;;;13.13;2.92;;;;;;;;;;5065080;28;20040;-86
2022/01/06 10:33:48;;;;;;;15.13;3.28;;;;;;;;;;5068304;28;20119;-86
2022/01/06 10:36:18;;;;;;;16.58;3.47;;;;;;;;;;5041785;28;20036;-85
2022/01/06 10:38:52;;;;;;;18.08;3.95;;;;;;;;;;5051494;28;20041;-86
2022/01/06 10:41:18;;;;;;;19.67;4.10;;;;;;;;;;5048617;28;20043;-86
2022/01/06 10:43:49;;;;;;;14.63;3.45;;;;;;;;;;5057588;28;20421;-85
2022/01/06 10:46:15;;;;;;;19.17;3.58;;;;;;;;;;5057592;28;20044;-86
2022/01/06 10:48:45;;;;;;;16.05;4.22;;;;;;;;;;5066967;28;20131;-86
2022/01/06 10:51:11;;;;;;;14.05;3.30;;;;;;;;;;5065253;28;20169;-86
2022/01/06 10:53:50;;;;;;;16.40;3.22;;;;;;;;;;5068562;28;20100;-86
2022/01/06 10:56:23;;;;;;;20.45;5.07;;;;;;;;;;5083138;27;20040;-85
2022/01/06 10:58:50;;;;;;;14.57;3.50;;;;;;;;;;5093388;28;20040;-86
2022/01/06 11:01:16;;;;;;;23.38;5.72;;;;;;;;;;5100482;28;20040;-86
2022/01/06 11:03:43;;;;;;;20.60;5.40;;;;;;;;;;5098371;28;20043;-86
2022/01/06 11:06:10;;;;;;;17.08;4.55;;;;;;;;;;5102868;28;20506;-85
2022/01/06 11:08:41;;;;;;;12.80;3.92;;;;;;;;;;5099371;28;20062;-86
2022/01/06 11:13:35;;;;;;;14.77;4.85;;;;;;;;;;5104821;28;20032;-86
2022/01/06 11:16:02;;;;;;;24.02;6.13;;;;;;;;;;5081381;28;20039;-87
2022/01/06 11:18:28;;;;;;;19.85;4.70;;;;;;;;;;5079716;28;20036;-87
2022/01/06 11:21:09;;;;;;;19.80;5.43;;;;;;;;;;5075793;28;20036;-87
2022/01/06 11:23:36;;;;;;;14.27;4.03;;;;;;;;;;5091490;28;20078;-87
2022/01/06 11:26:05;;;;;;;21.23;4.97;;;;;;;;;;5089723;28;20040;-86
2022/01/06 11:28:31;;;;;;;18.05;5.00;;;;;;;;;;5073286;28;20047;-86
2022/01/06 11:30:57;;;;;;;16.75;4.75;;;;;;;;;;5091810;28;20119;-86
2022/01/06 11:33:24;;;;;;;16.45;3.95;;;;;;;;;;5092566;28;20035;-87
2022/01/06 11:35:57;;;;;;;18.40;4.47;;;;;;;;;;5086398;28;20127;-86
2022/01/06 11:38:26;;;;;;;19.10;4.65;;;;;;;;;;5076188;28;20046;-87
2022/01/06 11:40:52;;;;;;;13.73;3.70;;;;;;;;;;5105080;28;20043;-87
2022/01/06 11:43:19;;;;;;;18.38;4.40;;;;;;;;;;5093635;28;20439;-87
2022/01/06 11:45:46;;;;;;;15.93;3.80;;;;;;;;;;5103948;28;20118;-87
2022/01/06 11:48:16;;;;;;;17.85;4.13;;;;;;;;;;5091102;28;20474;-87
2022/01/06 11:50:44;;;;;;;16.48;3.90;;;;;;;;;;5106585;28;20115;-87
2022/01/06 11:53:10;;;;;;;21.48;4.05;;;;;;;;;;5097174;28;20056;-88
2022/01/06 11:55:41;;;;;;;20.02;4.32;;;;;;;;;;5082219;28;20042;-88
2022/01/06 11:58:11;;;;;;;11.77;3.10;;;;;;;;;;5105094;28;20455;-88
2022/01/06 12:00:39;;;;;;;11.82;3.05;;;;;;;;;;5106361;28;20047;-88
2022/01/06 12:03:07;;;;;;;14.10;3.20;;;;;;;;;;5110309;28;20043;-88
2022/01/06 12:05:42;;;;;;;22.20;3.90;;;;;;;;;;5101885;28;20047;-88
2022/01/06 12:08:08;;;;;;;21.25;3.65;;;;;;;;;;5103389;28;20040;-88
2022/01/06 12:10:39;;;;;;;17.48;3.75;;;;;;;;;;5093317;28;20040;-88
2022/01/06 12:13:05;;;;;;;15.15;3.15;;;;;;;;;;5104601;28;20094;-88
2022/01/06 12:15:32;;;;;;;11.35;3.30;;;;;;;;;;5089472;28;20084;-88
2022/01/06 12:17:59;;;;;;;15.90;3.35;;;;;;;;;;5102523;28;20406;-88
2022/01/06 12:20:27;;;;;;;13.50;2.97;;;;;;;;;;5079150;28;20387;-88
2022/01/06 12:22:54;;;;;;;14.30;3.35;;;;;;;;;;5103338;28;20046;-87
2022/01/06 12:25:24;;;;;;;13.43;3.63;;;;;;;;;;5079900;28;20053;-87
2022/01/06 12:27:53;;;;;;;18.17;3.05;;;;;;;;;;5084617;28;20148;-87
2022/01/06 12:30:19;;;;;;;15.38;3.50;;;;;;;;;;5109477;28;20040;-87
2022/01/06 12:33:02;;;;;;;16.27;4.15;;;;;;;;;;5112313;28;20039;-87
2022/01/06 12:35:39;;;;;;;24.58;3.88;;;;;;;;;;5095044;28;20047;-87
2022/01/06 12:38:05;;;;;;;15.95;3.55;;;;;;;;;;5091368;28;20046;-87
2022/01/06 12:40:36;;;;;;;18.15;4.47;;;;;;;;;;5091718;28;20054;-87
2022/01/06 12:43:18;;;;;;;18.77;3.40;;;;;;;;;;5074311;28;20044;-87
2022/01/06 12:45:44;;;;;;;13.73;2.42;;;;;;;;;;5091344;28;20125;-87
2022/01/06 12:48:11;;;;;;;12.27;2.58;;;;;;;;;;5090597;28;20408;-87
2022/01/06 12:50:55;;;;;;;9.95;2.75;;;;;;;;;;5078466;28;20526;-87
2022/01/06 12:53:29;;;;;;;13.63;3.38;;;;;;;;;;5095266;28;20141;-87
2022/01/06 12:55:57;;;;;;;16.38;2.85;;;;;;;;;;5104987;28;20096;-87
2022/01/06 12:58:41;;;;;;;16.38;3.47;;;;;;;;;;5098060;28;20046;-88
2022/01/06 13:01:10;;;;;;;13.82;2.88;;;;;;;;;;5088596;28;20533;-87
2022/01/06 13:03:40;;;;;;;14.98;2.92;;;;;;;;;;5099195;28;20045;-89
2022/01/06 13:06:08;;;;;;;17.88;3.88;;;;;;;;;;5075328;28;20415;-87
2022/01/06 13:08:43;;;;;;;15.55;2.88;;;;;;;;;;5098098;28;20039;-87
2022/01/06 13:11:09;;;;;;;17.58;3.42;;;;;;;;;;5088092;28;20456;-88
2022/01/06 13:13:54;;;;;;;19.95;3.05;;;;;;;;;;5107023;28;20115;-88
2022/01/06 13:16:22;;;;;;;12.52;2.55;;;;;;;;;;5097226;28;20127;-87
2022/01/06 13:18:52;;;;;;;13.95;2.40;;;;;;;;;;5093368;28;20537;-89
2022/01/06 13:21:27;;;;;;;15.48;3.53;;;;;;;;;;5104713;28;20495;-87
2022/01/06 13:23:54;;;;;;;10.80;2.78;;;;;;;;;;5073655;28;20478;-88
2022/01/06 13:26:20;;;;;;;14.38;2.53;;;;;;;;;;5082486;28;20104;-88
2022/01/06 13:28:55;;;;;;;14.15;2.88;;;;;;;;;;5078438;28;20115;-88
2022/01/06 13:31:23;;;;;;;11.85;2.38;;;;;;;;;;5073878;28;20290;-87
2022/01/06 13:33:57;;;;;;;14.82;3.58;;;;;;;;;;5103830;28;20039;-88
2022/01/06 13:36:32;;;;;;;10.73;2.95;;;;;;;;;;5075837;28;20078;-87
2022/01/06 13:39:09;;;;;;;17.15;3.60;;;;;;;;;;5070008;28;20136;-88
2022/01/06 13:41:39;;;;;;;12.15;2.65;;;;;;;;;;5077496;28;20112;-88
2022/01/06 13:44:08;;;;;;;12.73;2.72;;;;;;;;;;5093636;28;20479;-88
2022/01/06 13:47:04;;;;;;;25.23;9.25;;;;;;;;;;5089991;28;20051;-87
2022/01/06 13:52:22;;;;;;;11.27;2.80;;;;;;;;;;5096659;28;20036;-89
2022/01/06 13:54:48;;;;;;;11.27;2.95;;;;;;;;;;5086934;28;20043;-88
2022/01/06 13:57:14;;;;;;;17.88;4.15;;;;;;;;;;5091440;28;20074;-87
2022/01/06 13:59:42;;;;;;;16.77;3.00;;;;;;;;;;5099179;28;20503;-88
2022/01/06 14:02:09;;;;;;;11.73;2.72;;;;;;;;;;5091773;28;20078;-88
2022/01/06 14:04:36;;;;;;;11.82;2.60;;;;;;;;;;5098330;28;20388;-88
2022/01/06 14:07:03;;;;;;;12.50;2.45;;;;;;;;;;5084326;28;20032;-88
2022/01/06 14:09:29;;;;;;;12.95;3.03;;;;;;;;;;5083259;28;20474;-88
2022/01/06 14:11:57;;;;;;;12.73;2.50;;;;;;;;;;5090143;28;20039;-88
2022/01/06 14:14:24;;;;;;;12.98;3.13;;;;;;;;;;5090594;28;20048;-87
2022/01/06 14:16:50;;;;;;;18.25;4.35;;;;;;;;;;5092300;28;20085;-88
2022/01/06 14:19:17;;;;;;;12.73;2.75;;;;;;;;;;5070610;28;20047;-87
2022/01/06 14:21:44;;;;;;;11.52;2.53;;;;;;;;;;5099965;28;20039;-88
2022/01/06 14:24:10;;;;;;;17.08;3.33;;;;;;;;;;5074598;28;20101;-88
2022/01/06 14:26:36;;;;;;;14.52;3.45;;;;;;;;;;5103017;28;20101;-88
2022/01/06 14:29:03;;;;;;;13.85;2.90;;;;;;;;;;5087212;28;20036;-88
2022/01/06 14:31:32;;;;;;;11.55;3.00;;;;;;;;;;5099057;28;20042;-88
2022/01/06 14:33:58;;;;;;;12.32;3.63;;;;;;;;;;5089525;28;20153;-88
2022/01/06 14:36:24;;;;;;;12.63;3.53;;;;;;;;;;5072930;28;20032;-88
2022/01/06 14:38:51;;;;;;;12.73;3.17;;;;;;;;;;5095796;28;20565;-88
2022/01/06 14:41:20;;;;;;;15.27;3.65;;;;;;;;;;5092745;28;20044;-87
2022/01/06 14:43:47;;;;;;;13.57;3.40;;;;;;;;;;5093783;28;20274;-87
2022/01/06 14:46:14;;;;;;;15.45;3.30;;;;;;;;;;5083841;28;20461;-87
2022/01/06 14:48:40;;;;;;;13.02;3.40;;;;;;;;;;5089136;28;20044;-87